• Join FlightAware (Why Join?)
  • Login
  • US Flag 
02:13AM EST


 

Airport Tracker/Info


-or-


 

Live Flight TrackerFlight Track Log ✈ AAL302 ✈ 27-Aug-2014 ✈ KMSY - KDFW

Flight Track Log - Related Links

Times and Time Zones

All times are in EDT time to prevent confusion due to time zone crossing. See the AAL302 flight status page for this flight to view local times or setup timezone preferences in your user account.

Time Position Orientation Groundspeed Altitude Reporting Facility
EDT Latitude Longitude Course Direction KTS MPH feet Rate Location/Type
05:36PM 29.9244 -90.3036 220° Southwest 251 289 3,000  Level Houston Center
05:37PM 30.0835 -90.4522 327° Northwest  Level Estimated
05:37PM 29.9542 -90.3761 295° West 265 305 5,900  Level Houston Center
05:38PM 30.2034 -90.4580 316° Northwest  Level FlightAware Approximate
05:38PM 30.0164 -90.4386 319° Northwest 285 328 9,100  Level Houston Center
05:39PM 30.2716 -90.5346 316° Northwest  Level FlightAware Approximate
05:39PM 30.0839 -90.4978 323° Northwest 298 343 11,100  Level Houston Center
05:40PM 30.3449 -90.6041 324° Northwest  Level FlightAware Approximate
05:40PM 30.1808 -90.5808 323° Northwest 354 407 13,600  Level Houston Center
05:41PM 30.2711 -90.6519 326° Northwest 382 440 16,200 2,280 Climbing Houston Center
05:42PM 30.3619 -90.7261 325° Northwest 396 456 18,400 1,980 Climbing Houston Center
05:43PM 30.4417 -90.8186 315° West 404 465 20,400 1,800 Climbing Houston Center
05:44PM 30.5269 -90.9147 316° Northwest 422 486 22,200 1,740 Climbing Houston Center
05:45PM 30.6117 -91.0114 316° Northwest 425 489 24,100 1,620 Climbing Houston Center
05:46PM 30.6761 -91.1583 297° West 422 486 25,600 1,260 Climbing Houston Center
05:47PM 30.7381 -91.3000 297° West 456 525 26,800 1,260 Climbing Houston Center
05:48PM 30.7953 -91.4314 297° West 460 529 28,300 1,440 Climbing Houston Center
05:49PM 30.8575 -91.5711 297° West 455 524 29,800 1,200 Climbing Houston Center
05:50PM 30.9128 -91.6983 297° West 451 519 30,900 540 Climbing Houston Center
05:51PM 30.9717 -91.8333 297° West 441 507 31,000  Climbing Houston Center
05:52PM 31.0267 -91.9639 296° West 440 506 31,000 -60 Level Houston Center
05:53PM 31.0825 -92.0939 297° West 447 514 30,900 360 Descending Houston Center
05:54PM 31.1375 -92.2206 297° West 447 514 31,800 480 Climbing Houston Center
05:55PM 31.1897 -92.3481 296° West 441 507 31,900 60 Climbing Houston Center
05:56PM 31.2453 -92.4786 296° West 450 518 32,000  Climbing Houston Center
05:57PM 31.3064 -92.6353 295° West 449 517 32,000  Level Houston Center
05:58PM 31.3569 -92.7675 294° West 449 517 32,000  Level Houston Center
06:00PM 31.4417 -92.9950 294° West 447 514 32,000 -60 Level Fort Worth Center
06:01PM 31.5008 -93.1528 294° West 447 514 31,900 -60 Descending Fort Worth Center
06:02PM 31.5508 -93.2856 294° West 446 513 31,900  Level Fort Worth Center
06:03PM 31.6003 -93.4189 294° West 446 513 31,900  Level Fort Worth Center
06:04PM 31.6497 -93.5539 293° West 448 516 32,000 60 Climbing Fort Worth Center
06:05PM 31.6997 -93.6892 294° West 450 518 32,100  Climbing Fort Worth Center
06:06PM 31.7478 -93.8244 293° West 450 518 32,000 -60 Descending Fort Worth Center
06:08PM 31.7814 -93.9956 283° West 450 518 32,000  Level Fort Worth Center
06:09PM 31.8117 -94.1456 283° West 450 518 32,000 -60 Level Fort Worth Center
06:10PM 31.8389 -94.2864 283° West 447 514 31,900 -60 Descending Fort Worth Center
06:11PM 31.8672 -94.4275 283° West 447 514 31,900  Level Fort Worth Center
06:12PM 31.8939 -94.5719 282° West 450 518 31,900  Level Fort Worth Center
06:13PM 31.9222 -94.7142 283° West 451 519 32,000 -300 Climbing Fort Worth Center
06:14PM 31.9544 -94.8850 283° West 448 516 31,400 -780 Descending Fort Worth Center
06:15PM 31.9811 -95.0317 282° West 458 527 30,400 -1,020 Descending Fort Worth Center
06:16PM 32.0083 -95.1767 283° West 455 524 29,300 -1,080 Descending Fort Worth Center
06:17PM 32.0353 -95.3233 282° West 458 527 28,200 -1,080 Descending Fort Worth Center
06:18PM 32.0606 -95.4711 281° West 461 531 27,100 -1,080 Descending Fort Worth Center
06:19PM 32.0469 -95.6311 264° West 451 519 26,000 -1,140 Descending Fort Worth Center
06:20PM 32.0350 -95.7758 264° West 445 512 24,800 -1,020 Descending Fort Worth Center
06:21PM 32.0236 -95.9219 265° West 448 516 24,000 -840 Descending Fort Worth Center
06:22PM 32.0444 -96.0861 279° West 454 522 23,100 -1,140 Descending Fort Worth Center
06:23PM 32.1394 -96.1750 322° Northwest 441 507 21,700 -1,500 Descending Fort Worth Center
06:24PM 32.2303 -96.2689 319° Northwest 413 475 20,000 -1,980 Descending Fort Worth Center
06:25PM 32.3117 -96.3661 315° West 388 447 17,700 -2,400 Descending Fort Worth Center
06:26PM 32.3828 -96.4517 315° West 366 421 15,100 -2,520 Descending Fort Worth Center
06:27PM 32.4600 -96.5425 315° West 362 417 12,600 -1,980 Descending Fort Worth Center
06:28PM 32.5286 -96.6244 315° West 354 407 11,100 -780 Descending Fort Worth Center
06:29PM 32.5903 -96.7014 314° West 321 369 11,000 -60 Descending Fort Worth Center
06:30PM 32.6575 -96.7772 316° Northwest 311 358 11,000  Level Fort Worth Center
06:31PM 32.7169 -96.8497 314° West 308 354 11,000  Level Fort Worth Center
06:32PM 32.7722 -96.9169 314° West 264 304 11,000  Level Fort Worth Center
06:33PM 32.8119 -96.9900 303° West 264 304 11,000 -480 Level Fort Worth Center
06:34PM 32.8556 -97.0667 304° West 263 303 10,000 -1,200 Descending Fort Worth Center
06:35PM 32.9075 -97.1217 318° Northwest 252 290 8,600 -1,680 Descending Fort Worth Center
06:37PM 32.9669 -97.1725 324° Northwest 251 289 6,600 -1,920 Descending Fort Worth Center
06:38PM 33.0294 -97.1628 North 234 269 4,700 -1,740 Descending Fort Worth Center
06:39PM 33.0414 -97.0883 79° East 212 244 3,100 -1,020 Descending Fort Worth Center
06:40PM 33.0125 -97.0550 136° Southeast 176 203 2,600 -720 Descending Fort Worth Center
06:41PM 32.9625 -97.0550 180° South 167 192 1,600 -900 Descending Fort Worth Center
06:42PM 32.9233 -97.0558 181° South 144 166 800 -780 Descending Fort Worth Center